Latest Coastal Weather Observations for Hobart Airport

IDT60701

Issued at 1:02 pm EST Sunday 19 April 2015 (issued every 10 minutes, with the page automatically refreshed every 10 minutes)

About coastal observations | Map of coastal stations | Coastal observations for TAS | Marine services | Other Formats
Station Details ID: 094008 Name: HOBART AIRPORT Lat: -42.83 Lon: 147.50 Height: 4.0 m
Data from the previous 72 hours. | See also: Recent months at Hobart Airport
Date/Time
EST
Temp

°C
Wind Pressure Rain
since 9am
mm
Weather Cloud Vis
km
Sea
Height
m
Swell
Dir
 
Speed
knots
Gust
knots
hPa Trend Height
m
Period
s
Dir
19/12:30pm 11.2 SSW 13 20 1026.5 - 0.0 - Mostly clear 10 - - - -
19/11:30am 10.9 SSW 10 16 1026.4 - 0.0 - Mostly clear 10 - - - -
19/11:00am 10.4 S 13 19 1026.1 - 0.0 - Mostly clear 10 - - - -
19/10:30am 11.1 SW 12 20 1025.5 - 0.0 - Mostly clear 10 - - - -
19/10:00am 10.6 SW 12 18 1025.0 - 0.0 - Mostly clear 10 - - - -
19/09:30am 10.1 SSW 9 15 1024.5 - 0.0 - Mostly clear 10 - - - -
19/09:00am 9.6 SW 14 22 1024.0 R 0.8 Distant precip. Mostly clear 40 - - - -
19/08:43am 9.6 SW 15 26 1023.7 - 0.8 - - 10 - - - -
19/08:30am 9.8 SW 13 20 1023.3 - 0.8 - Mostly clear 10 - - - -
19/08:00am 9.5 WSW 11 17 1022.4 - 0.8 - Mostly clear 10 - - - -
19/07:30am 8.5 WSW 8 12 1021.6 - 0.8 - Mostly clear 10 - - - -
19/07:00am 8.3 SSW 8 16 1020.8 - 0.8 - Mostly clear 10 - - - -
19/06:30am 8.5 SW 9 16 1019.9 - 0.8 - Mostly clear 10 - - - -
19/06:00am 8.7 SSW 9 11 1019.1 R 0.8 Distant precip. Mostly cloudy 30 - - - -
19/05:30am 9.0 SW 7 13 1018.4 - 0.8 - Mostly clear 10 - - - -
19/05:00am 7.7 SSW 5 8 1017.6 - 0.8 - Mostly clear 10 - - - -
19/04:30am 7.9 SSW 13 19 1016.7 - 0.8 - Mostly clear 10 - - - -
19/04:00am 8.4 SSW 16 23 1016.0 - 0.2 - Mostly clear 10 - - - -
19/03:30am 9.1 SSW 11 17 1015.1 - 0.2 - Mostly clear 10 - - - -
19/03:00am 9.1 SSW 9 12 1014.2 R 0.0 Showers Mostly cloudy 15 - - - -
19/02:30am 9.5 SW 13 19 1013.8 - 0.0 Showers Mostly clear 10 - - - -
19/02:00am 9.4 WSW 10 15 1013.1 - 0.0 - Mostly clear 10 - - - -
19/01:30am 8.5 WNW 4 5 1012.7 - 0.0 - Mostly clear 10 - - - -
19/01:00am 9.6 WNW 5 7 1012.3 - 0.0 - Mostly clear 10 - - - -
19/12:30am 9.9 WNW 7 9 1011.9 - 0.0 - Mostly clear 10 - - - -
 
Date/Time
EST
Temp

°C
Wind Pressure Rain
since 9am
mm
Weather Cloud Vis
km
Sea
Height
m
Swell
Dir
 
Speed
knots
Gust
knots
hPa Trend Height
m
Period
s
Dir
18/11:30pm 10.2 NW 7 10 1010.9 - 0.0 - Mostly clear 10 - - - -
18/11:00pm 9.9 NNW 4 5 1010.4 - 0.0 - Mostly clear 10 - - - -
18/10:30pm 11.4 N 6 11 1010.1 - 0.0 - Mostly clear 10 - - - -
18/10:00pm 11.0 NNW 3 5 1010.0 - 0.0 - Mostly clear 10 - - - -
18/09:30pm 11.9 W 7 11 1009.1 - 0.0 - Mostly clear 10 - - - -
18/09:00pm 12.2 WNW 9 13 1008.8 R 0.0 Fine Mostly cloudy 40 - - - -
18/08:30pm 12.2 WNW 8 14 1008.4 - 0.0 - Mostly clear 10 - - - -
18/08:00pm 12.4 NW 13 17 1007.8 - 0.0 - Mostly clear 10 - - - -
18/07:30pm 12.4 WNW 9 15 1007.0 - 0.0 - Mostly clear 10 - - - -
18/07:00pm 12.6 NW 10 12 1006.5 - 0.0 - Mostly clear 10 - - - -
18/06:30pm 13.2 WNW 17 24 1006.1 - 0.0 - Mostly clear 10 - - - -
18/06:00pm 13.6 NW 10 16 1006.1 R 0.0 Distant precip. Cloudy 25 - - - -
18/05:30pm 12.4 N 7 10 1005.8 - 0.0 - Mostly clear 10 - - - -
18/05:00pm 12.8 W 6 10 1004.9 - 0.0 - Mostly clear 10 - - - -
18/04:30pm 12.7 SW 13 19 1004.1 - 0.0 - Mostly clear 10 - - - -
18/04:11pm 12.5 SSW 16 26 1003.4 - 0.0 Showers Mostly clear 10 - - - -
18/04:00pm 13.4 SSW 17 24 1003.0 - 0.0 - Mostly clear 10 - - - -
18/03:33pm 14.7 WSW 11 26 1002.7 - 0.0 - Mostly clear 10 - - - -
18/03:30pm 19.6 W 10 16 1002.6 - 0.0 - Mostly clear 10 - - - -
18/03:24pm 19.5 WNW 16 22 1002.1 - 0.0 - Mostly clear 10 - - - -
18/03:00pm 19.9 NW 18 31 1001.6 F 0.0 Distant precip. Mostly cloudy 35 - - - -
18/02:30pm 20.5 NW 21 30 1001.3 - 0.0 - Partly cloudy 10 - - - -
18/02:05pm 21.0 WNW 17 27 1001.4 - 0.0 - Cloudy 10 - - - -
18/02:00pm 20.6 WNW 22 29 1001.3 - 0.0 - Cloudy 10 - - - -
18/01:50pm 20.6 NW 19 30 1001.4 - 0.0 - Partly cloudy 10 - - - -
18/01:30pm 20.2 NW 20 26 1001.6 - 0.0 - Partly cloudy 10 - - - -
18/01:00pm 21.2 NW 19 25 1001.9 - 0.0 - Cloudy 10 - - - -
18/12:30pm 20.8 NW 19 27 1002.3 - 0.0 - Partly cloudy 10 - - - -
18/12:00pm 20.6 NW 17 22 1002.8 F 0.0 Fine Partly cloudy 35 - - - -
18/11:32am 19.6 NNW 15 25 1003.2 - 0.0 - Mostly clear 10 - - - -
18/11:30am 19.8 NW 14 20 1003.3 - 0.0 - Mostly clear 10 - - - -
18/11:00am 18.8 NNW 13 20 1004.1 - 0.0 - Mostly clear 10 - - - -
18/10:30am 18.2 NNW 15 21 1004.6 - 0.0 - Mostly clear 10 - - - -
18/10:00am 17.2 NNW 15 21 1004.8 - 0.0 - Mostly clear 10 - - - -
18/09:30am 16.5 NNW 15 23 1005.2 - 0.0 - Mostly clear 10 - - - -
18/09:00am 16.1 NNW 14 20 1005.8 F 0.2 Fine Mostly clear 35 - - - -
18/08:30am 15.3 NNW 10 16 1006.3 - 0.2 - Mostly clear 10 - - - -
18/08:00am 14.2 N 5 9 1006.7 - 0.2 - Mostly clear 10 - - - -
18/07:30am 13.0 N 6 9 1006.5 - 0.2 - - 10 - - - -
18/07:00am 13.3 NNW 8 11 1006.2 - 0.2 - - 10 - - - -
18/06:30am 12.6 NNW 8 13 1006.0 - 0.2 - - 10 - - - -
18/06:00am 12.3 NNW 10 15 1005.8 F 0.2 Fine Partly cloudy 40 - - - -
18/05:30am 12.5 NNW 9 14 1005.6 - 0.2 - - 10 - - - -
18/05:00am 12.9 NNW 9 14 1005.8 - 0.2 - - 10 - - - -
18/04:30am 13.2 N 12 17 1006.0 - 0.2 - - 10 - - - -
18/04:00am 13.2 N 9 16 1006.2 - 0.2 - - 10 - - - -
18/03:30am 13.2 N 7 11 1006.4 - 0.2 - - 10 - - - -
18/03:00am 13.3 N 8 12 1006.5 F 0.2 Fine Mostly cloudy 40 - - - -
18/02:30am 13.5 N 9 13 1007.1 - 0.2 - Cloudy 10 - - - -
18/02:00am 13.4 N 10 16 1008.0 - 0.2 - - 10 - - - -
18/01:30am 13.3 NNW 8 12 1008.8 - 0.2 - - 10 - - - -
18/01:00am 13.5 N 10 15 1009.5 - 0.2 - - 10 - - - -
18/12:30am 13.1 NNW 13 18 1009.8 - 0.2 - - 10 - - - -
18/12:00am 13.2 NNW 13 18 1010.2 F 0.2 Fine Mostly cloudy 40 - - - -
 
Date/Time
EST
Temp

°C
Wind Pressure Rain
since 9am
mm
Weather Cloud Vis
km
Sea
Height
m
Swell
Dir
 
Speed
knots
Gust
knots
hPa Trend Height
m
Period
s
Dir
17/11:30pm 13.0 NNW 10 14 1010.5 - 0.2 - - 10 - - - -
17/11:00pm 12.9 NNW 9 15 1010.9 - 0.2 - - 10 - - - -
17/10:30pm 13.0 N 11 15 1011.6 - 0.2 - - 10 - - - -
17/10:00pm 13.3 N 12 16 1012.0 - 0.2 - - 10 - - - -
17/09:30pm 13.7 N 11 17 1012.3 - 0.2 - - 10 - - - -
17/09:00pm 13.8 N 10 17 1012.6 F 0.2 Fine Mostly cloudy 40 - - - -
17/08:30pm 13.1 N 8 11 1012.8 - 0.2 - - 10 - - - -
17/08:00pm 14.1 N 6 8 1012.8 - 0.2 - - 10 - - - -
17/07:30pm 14.9 NNW 6 7 1013.1 - 0.2 - - 10 - - - -
17/07:00pm 13.8 N 5 6 1013.0 - 0.2 - - 10 - - - -
17/06:30pm 14.7 N 7 9 1013.1 - 0.2 - - 10 - - - -
17/06:00pm 16.4 N 5 8 1012.9 F 0.2 Fine Mostly cloudy 40 - - - -
17/05:30pm 14.4 NNW 5 6 1013.1 - 0.2 - - 10 - - - -
17/05:00pm 18.1 NW 7 9 1012.8 - 0.2 - - 10 - - - -
17/04:30pm 19.1 NW 9 12 1013.1 - 0.2 - - 10 - - - -
17/04:00pm 20.0 WNW 9 15 1013.4 - 0.2 - - 10 - - - -
17/03:30pm 21.0 NW 14 19 1013.8 - 0.2 - - 10 - - - -
17/03:00pm 19.8 NNW 8 12 1014.3 F 0.2 Fine Mostly cloudy 40 - - - -
17/02:30pm 20.2 NNW 10 14 1014.2 - 0.2 - - 10 - - - -
17/02:00pm 21.0 NW 13 18 1014.5 - 0.2 - - 10 - - - -
17/01:30pm 21.0 NW 15 19 1014.9 - 0.2 - - 10 - - - -
17/01:00pm 20.1 NW 12 17 1015.7 - 0.2 - - 10 - - - -
17/12:30pm 19.8 NNW 11 17 1016.3 - 0.2 - Mostly clear 10 - - - -
17/12:00pm 19.1 NW 15 18 1017.1 F 0.2 Fine Partly cloudy 40 - - - -
17/11:30am 18.4 NW 15 21 1017.8 - 0.0 - Mostly clear 10 - - - -
17/11:00am 17.3 NW 17 22 1017.9 - 0.0 - Mostly clear 10 - - - -
17/10:30am 17.0 NNW 12 17 1018.8 - 0.0 - Mostly clear 10 - - - -
17/10:00am 16.6 NNW 11 17 1019.1 - 0.0 - Mostly clear 10 - - - -
17/09:30am 16.1 NW 9 15 1019.2 - 0.0 - Mostly clear 10 - - - -
17/09:00am 14.8 NNW 9 14 1019.7 F 0.0 Fine Partly cloudy 40 - - - -
17/08:30am 13.9 N 6 8 1020.2 - 0.0 - Mostly clear 10 - - - -
17/08:00am 11.9 NW 5 6 1020.6 - 0.0 - Mostly clear 10 - - - -
17/07:30am 10.7 NW 7 8 1020.5 - 0.0 - Mostly clear 10 - - - -
17/07:00am 10.0 NW 8 9 1020.2 - 0.0 - Mostly clear 10 - - - -
17/06:30am 9.6 NW 7 8 1020.2 - 0.0 - Mostly clear 10 - - - -
17/06:00am 11.7 NW 6 8 1020.0 R 0.0 Fine Partly cloudy 40 - - - -
17/05:30am 11.7 N 5 7 1020.0 - 0.0 - Partly cloudy 10 - - - -
17/05:00am 11.3 NW 4 6 1019.9 - 0.0 - Partly cloudy 10 - - - -
17/04:30am 12.2 NE 1 5 1019.7 - 0.0 - Partly cloudy 10 - - - -
17/04:00am 12.3 NW 6 8 1019.3 - 0.0 - Partly cloudy 10 - - - -
17/03:30am 12.3 WNW 9 11 1019.6 - 0.0 - Partly cloudy 10 - - - -
17/03:00am 13.0 N 7 9 1019.5 F 0.0 Fine Partly cloudy 40 - - - -
17/02:30am 13.2 NW 9 14 1019.5 - 0.0 - Partly cloudy 10 - - - -
17/02:00am 13.1 N 7 10 1020.1 - 0.0 - Mostly clear 10 - - - -
17/01:30am 12.6 NNE 7 9 1020.1 - 0.0 - Partly cloudy 10 - - - -
17/01:00am 12.1 N 8 10 1020.0 - 0.0 - Mostly clear 10 - - - -
17/12:30am 12.7 N 7 9 1020.2 - 0.0 - Partly cloudy 10 - - - -
17/12:00am 13.1 NNW 6 8 1020.3 S 0.0 Fine Mostly cloudy 40 - - - -
 
Date/Time
EST
Temp

°C
Wind Pressure Rain
since 9am
mm
Weather Cloud Vis
km
Sea
Height
m
Swell
Dir
 
Speed
knots
Gust
knots
hPa Trend Height
m
Period
s
Dir
16/11:30pm 12.9 NNW 9 12 1020.1 - 0.0 - Mostly clear 10 - - - -
16/11:00pm 13.6 NNW 9 13 1020.4 - 0.0 - Mostly clear 10 - - - -
16/10:30pm 13.6 NNW 9 13 1020.7 - 0.0 - Mostly clear 10 - - - -
16/10:00pm 13.4 NW 9 11 1020.9 - 0.0 - Mostly clear 10 - - - -
16/09:30pm 13.5 NNW 13 17 1020.8 - 0.0 - Mostly clear 10 - - - -
16/09:00pm 13.5 NW 11 15 1020.7 F 0.0 Fine Mostly cloudy 40 - - - -
16/08:30pm 13.9 NNW 7 10 1020.5 - 0.0 - Mostly clear 10 - - - -
16/08:00pm 14.0 NNW 9 15 1020.6 - 0.0 - Mostly clear 10 - - - -
16/07:30pm 14.4 NNW 9 14 1020.1 - 0.0 - Mostly clear 10 - - - -
16/07:00pm 14.0 NNW 9 15 1020.1 - 0.0 - Mostly clear 10 - - - -
16/06:30pm 14.2 NNW 11 16 1020.1 - 0.0 - Mostly clear 10 - - - -
16/06:00pm 14.4 NNW 11 16 1020.1 S 0.0 Fine Mostly cloudy 40 - - - -
16/05:30pm 14.5 NW 13 17 1019.8 - 0.0 - Mostly clear 10 - - - -
16/05:00pm 14.8 NW 13 18 1019.6 - 0.0 - Mostly clear 10 - - - -
16/04:30pm 15.0 WNW 16 22 1019.4 - 0.0 - Mostly clear 10 - - - -
16/04:00pm 15.2 WNW 18 23 1019.4 - 0.0 - Mostly clear 10 - - - -
16/03:30pm 15.0 WNW 17 24 1019.5 - 0.0 - Mostly clear 10 - - - -
16/03:22pm 14.9 NW 17 27 1019.6 - 0.0 - Mostly clear 10 - - - -
16/03:00pm 15.0 WNW 21 28 1019.3 R 0.0 Fine Mostly clear 40 - - - -
16/02:53pm 15.1 WNW 18 28 1018.9 - 0.0 - Mostly clear 10 - - - -
16/02:30pm 16.5 W 16 21 1019.3 - 0.0 - Mostly clear 10 - - - -
16/02:00pm 16.8 WNW 18 26 1019.1 - 0.0 - Mostly clear 10 - - - -
16/01:30pm 16.8 W 17 22 1018.9 - 0.0 - Mostly clear 10 - - - -

Other Formats:

Comma delimited format used in spreadsheet applications
http://www.bom.gov.au/fwo/IDT60701/IDT60701.94975.axf

JavaScript Object Notation format (JSON) in row-major order
http://www.bom.gov.au/fwo/IDT60701/IDT60701.94975.json